sensor_id;sensor_type;location;lat;lon;timestamp;pressure;altitude;pressure_sealevel;temperature;humidity
41234;BME280;26968;42.686;23.352;2023-04-28T00:01:35;95438.06;;;6.77;49.26
41234;BME280;26968;42.686;23.352;2023-04-28T00:04:00;95448.22;;;6.35;50.17
41234;BME280;26968;42.686;23.352;2023-04-28T00:06:26;95417.91;;;6.33;50.21
41234;BME280;26968;42.686;23.352;2023-04-28T00:08:51;95467.13;;;6.66;50.18
41234;BME280;26968;42.686;23.352;2023-04-28T00:11:16;95451.66;;;6.52;50.21
41234;BME280;26968;42.686;23.352;2023-04-28T00:13:42;95435.56;;;6.32;49.98
41234;BME280;26968;42.686;23.352;2023-04-28T00:16:07;95472.00;;;6.57;50.12
41234;BME280;26968;42.686;23.352;2023-04-28T00:18:33;95478.00;;;6.52;50.04
41234;BME280;26968;42.686;23.352;2023-04-28T00:20:58;95440.97;;;6.42;50.17
41234;BME280;26968;42.686;23.352;2023-04-28T00:23:24;95454.47;;;6.46;50.18
41234;BME280;26968;42.686;23.352;2023-04-28T00:25:54;95475.19;;;6.42;50.69
41234;BME280;26968;42.686;23.352;2023-04-28T00:28:20;95457.16;;;6.34;50.40
41234;BME280;26968;42.686;23.352;2023-04-28T00:30:46;95437.13;;;6.33;50.25
41234;BME280;26968;42.686;23.352;2023-04-28T00:33:11;95486.28;;;6.28;50.90
41234;BME280;26968;42.686;23.352;2023-04-28T00:35:38;95467.03;;;6.10;51.03
41234;BME280;26968;42.686;23.352;2023-04-28T00:38:03;95433.94;;;5.98;51.48
41234;BME280;26968;42.686;23.352;2023-04-28T00:40:35;95470.50;;;6.28;51.04
41234;BME280;26968;42.686;23.352;2023-04-28T00:43:01;95467.69;;;6.34;51.28
41234;BME280;26968;42.686;23.352;2023-04-28T00:45:27;95425.97;;;6.09;50.82
41234;BME280;26968;42.686;23.352;2023-04-28T00:47:53;95455.97;;;6.08;51.17
41234;BME280;26968;42.686;23.352;2023-04-28T00:50:20;95422.13;;;5.55;52.08
41234;BME280;26968;42.686;23.352;2023-04-28T00:52:46;95454.00;;;5.59;52.51
41234;BME280;26968;42.686;23.352;2023-04-28T00:55:14;95469.25;;;5.73;52.54
41234;BME280;26968;42.686;23.352;2023-04-28T00:57:40;95467.75;;;5.89;52.11
41234;BME280;26968;42.686;23.352;2023-04-28T01:00:06;95472.78;;;5.91;51.80
41234;BME280;26968;42.686;23.352;2023-04-28T01:02:32;95484.09;;;5.91;52.34
41234;BME280;26968;42.686;23.352;2023-04-28T01:04:58;95433.72;;;5.71;51.71
41234;BME280;26968;42.686;23.352;2023-04-28T01:07:24;95470.94;;;5.91;52.35
41234;BME280;26968;42.686;23.352;2023-04-28T01:09:49;95494.31;;;6.04;51.96
41234;BME280;26968;42.686;23.352;2023-04-28T01:12:15;95426.84;;;5.70;52.10
41234;BME280;26968;42.686;23.352;2023-04-28T01:14:41;95492.53;;;6.22;52.21
41234;BME280;26968;42.686;23.352;2023-04-28T01:17:07;95477.34;;;6.12;51.67
41234;BME280;26968;42.686;23.352;2023-04-28T01:19:32;95505.38;;;6.35;51.47
41234;BME280;26968;42.686;23.352;2023-04-28T01:21:58;95497.06;;;6.09;51.50
41234;BME280;26968;42.686;23.352;2023-04-28T01:24:23;95468.31;;;5.63;52.39
41234;BME280;26968;42.686;23.352;2023-04-28T01:26:49;95412.09;;;5.12;52.95
41234;BME280;26968;42.686;23.352;2023-04-28T01:29:14;95479.69;;;5.40;53.46
41234;BME280;26968;42.686;23.352;2023-04-28T01:31:40;95477.50;;;5.49;53.17
41234;BME280;26968;42.686;23.352;2023-04-28T01:34:05;95469.47;;;5.55;52.97
41234;BME280;26968;42.686;23.352;2023-04-28T01:36:31;95492.91;;;5.85;51.91
41234;BME280;26968;42.686;23.352;2023-04-28T01:38:57;95425.44;;;5.51;52.10
41234;BME280;26968;42.686;23.352;2023-04-28T01:41:23;95485.06;;;5.73;51.98
41234;BME280;26968;42.686;23.352;2023-04-28T01:43:48;95464.16;;;5.67;52.22
41234;BME280;26968;42.686;23.352;2023-04-28T01:46:14;95496.13;;;5.87;51.60
41234;BME280;26968;42.686;23.352;2023-04-28T01:48:40;95498.53;;;5.89;52.07
41234;BME280;26968;42.686;23.352;2023-04-28T01:51:05;95388.69;;;5.11;51.81
41234;BME280;26968;42.686;23.352;2023-04-28T01:53:31;95367.81;;;5.21;51.81
41234;BME280;26968;42.686;23.352;2023-04-28T01:55:56;95466.81;;;5.83;51.51
41234;BME280;26968;42.686;23.352;2023-04-28T01:58:23;95504.44;;;6.24;51.10
41234;BME280;26968;42.686;23.352;2023-04-28T02:00:48;95432.50;;;5.62;51.39
41234;BME280;26968;42.686;23.352;2023-04-28T02:03:14;95466.00;;;6.11;51.25
41234;BME280;26968;42.686;23.352;2023-04-28T02:05:39;95417.00;;;5.49;51.64
41234;BME280;26968;42.686;23.352;2023-04-28T02:08:05;95412.06;;;5.24;51.69
41234;BME280;26968;42.686;23.352;2023-04-28T02:10:30;95352.56;;;5.06;51.27
41234;BME280;26968;42.686;23.352;2023-04-28T02:12:56;95391.91;;;5.29;51.32
41234;BME280;26968;42.686;23.352;2023-04-28T02:15:21;95457.91;;;5.56;51.63
41234;BME280;26968;42.686;23.352;2023-04-28T02:17:46;95474.44;;;5.68;51.23
41234;BME280;26968;42.686;23.352;2023-04-28T02:20:12;95461.75;;;5.65;51.73
41234;BME280;26968;42.686;23.352;2023-04-28T02:22:39;95523.28;;;5.76;51.97
41234;BME280;26968;42.686;23.352;2023-04-28T02:25:05;95437.78;;;4.58;53.41
41234;BME280;26968;42.686;23.352;2023-04-28T02:27:30;95503.44;;;5.05;53.67
41234;BME280;26968;42.686;23.352;2023-04-28T02:29:56;95526.84;;;5.30;53.51
41234;BME280;26968;42.686;23.352;2023-04-28T02:32:21;95475.88;;;5.08;53.64
41234;BME280;26968;42.686;23.352;2023-04-28T02:34:52;95487.78;;;5.10;53.53
41234;BME280;26968;42.686;23.352;2023-04-28T02:37:17;95482.84;;;5.14;53.29
41234;BME280;26968;42.686;23.352;2023-04-28T02:39:43;95513.63;;;5.53;52.93
41234;BME280;26968;42.686;23.352;2023-04-28T02:42:08;95526.13;;;5.74;52.62
41234;BME280;26968;42.686;23.352;2023-04-28T02:44:33;95485.50;;;5.42;52.34
41234;BME280;26968;42.686;23.352;2023-04-28T02:46:59;95530.22;;;5.54;52.57
41234;BME280;26968;42.686;23.352;2023-04-28T02:49:25;95515.88;;;5.21;53.40
41234;BME280;26968;42.686;23.352;2023-04-28T02:51:51;95505.97;;;5.00;53.59
41234;BME280;26968;42.686;23.352;2023-04-28T02:54:16;95524.78;;;5.20;53.20
41234;BME280;26968;42.686;23.352;2023-04-28T02:56:51;95541.81;;;5.41;53.02
41234;BME280;26968;42.686;23.352;2023-04-28T02:59:16;95541.31;;;5.56;53.15
41234;BME280;26968;42.686;23.352;2023-04-28T03:01:42;95521.31;;;5.43;52.68
41234;BME280;26968;42.686;23.352;2023-04-28T03:04:07;95506.41;;;5.60;51.98
41234;BME280;26968;42.686;23.352;2023-04-28T03:06:33;95515.69;;;5.51;51.98
41234;BME280;26968;42.686;23.352;2023-04-28T03:08:58;95546.81;;;5.82;52.54
41234;BME280;26968;42.686;23.352;2023-04-28T03:11:23;95538.44;;;5.97;52.00
41234;BME280;26968;42.686;23.352;2023-04-28T03:13:49;95525.66;;;5.89;51.88
41234;BME280;26968;42.686;23.352;2023-04-28T03:16:14;95481.63;;;5.73;51.71
41234;BME280;26968;42.686;23.352;2023-04-28T03:18:40;95545.44;;;6.20;51.38
41234;BME280;26968;42.686;23.352;2023-04-28T03:21:05;95523.47;;;6.14;51.20
41234;BME280;26968;42.686;23.352;2023-04-28T03:23:31;95523.63;;;6.08;51.04
41234;BME280;26968;42.686;23.352;2023-04-28T03:25:56;95532.50;;;6.18;51.16
41234;BME280;26968;42.686;23.352;2023-04-28T03:28:21;95541.72;;;6.04;51.14
41234;BME280;26968;42.686;23.352;2023-04-28T03:30:47;95516.78;;;5.67;52.02
41234;BME280;26968;42.686;23.352;2023-04-28T03:33:12;95571.75;;;5.80;52.20
41234;BME280;26968;42.686;23.352;2023-04-28T03:35:37;95443.91;;;4.99;52.36
41234;BME280;26968;42.686;23.352;2023-04-28T03:38:03;95563.19;;;5.85;51.78
41234;BME280;26968;42.686;23.352;2023-04-28T03:40:29;95580.69;;;5.91;51.81
41234;BME280;26968;42.686;23.352;2023-04-28T03:42:55;95517.91;;;5.31;52.16
41234;BME280;26968;42.686;23.352;2023-04-28T03:45:21;95569.41;;;5.67;51.89
41234;BME280;26968;42.686;23.352;2023-04-28T03:47:46;95581.53;;;5.79;51.97
41234;BME280;26968;42.686;23.352;2023-04-28T03:50:12;95557.19;;;5.61;52.04
41234;BME280;26968;42.686;23.352;2023-04-28T03:52:37;95571.72;;;5.52;52.31
41234;BME280;26968;42.686;23.352;2023-04-28T03:55:03;95567.38;;;5.57;52.24
41234;BME280;26968;42.686;23.352;2023-04-28T03:57:28;95578.28;;;5.49;52.13
41234;BME280;26968;42.686;23.352;2023-04-28T03:59:54;95489.41;;;4.76;52.26
41234;BME280;26968;42.686;23.352;2023-04-28T04:02:19;95550.63;;;5.12;52.32
41234;BME280;26968;42.686;23.352;2023-04-28T04:04:45;95599.09;;;5.27;52.17
41234;BME280;26968;42.686;23.352;2023-04-28T04:07:10;95625.38;;;5.51;52.52
41234;BME280;26968;42.686;23.352;2023-04-28T04:09:35;95603.53;;;5.50;52.10
41234;BME280;26968;42.686;23.352;2023-04-28T04:12:01;95625.38;;;5.62;51.61
41234;BME280;26968;42.686;23.352;2023-04-28T04:14:26;95605.72;;;5.30;51.73
41234;BME280;26968;42.686;23.352;2023-04-28T04:16:52;95567.66;;;5.21;52.00
41234;BME280;26968;42.686;23.352;2023-04-28T04:19:17;95578.75;;;5.23;51.77
41234;BME280;26968;42.686;23.352;2023-04-28T04:21:42;95589.81;;;5.36;51.78
41234;BME280;26968;42.686;23.352;2023-04-28T04:24:08;95582.13;;;5.58;51.25
41234;BME280;26968;42.686;23.352;2023-04-28T04:26:33;95638.59;;;6.02;51.12
41234;BME280;26968;42.686;23.352;2023-04-28T04:28:58;95648.56;;;5.89;51.06
41234;BME280;26968;42.686;23.352;2023-04-28T04:31:24;95611.75;;;5.54;51.23
41234;BME280;26968;42.686;23.352;2023-04-28T04:33:49;95653.25;;;5.75;50.71
41234;BME280;26968;42.686;23.352;2023-04-28T04:36:15;95514.41;;;4.90;50.74
41234;BME280;26968;42.686;23.352;2023-04-28T04:38:41;95596.25;;;5.40;51.16
41234;BME280;26968;42.686;23.352;2023-04-28T04:41:06;95643.09;;;5.67;50.65
41234;BME280;26968;42.686;23.352;2023-04-28T04:43:32;95626.53;;;5.55;50.67
41234;BME280;26968;42.686;23.352;2023-04-28T04:45:57;95425.78;;;4.04;51.38
41234;BME280;26968;42.686;23.352;2023-04-28T04:48:23;95603.44;;;4.98;52.22
41234;BME280;26968;42.686;23.352;2023-04-28T04:50:49;95650.09;;;5.15;52.30
41234;BME280;26968;42.686;23.352;2023-04-28T04:53:14;95634.41;;;5.20;52.15
41234;BME280;26968;42.686;23.352;2023-04-28T04:55:39;95564.56;;;4.77;52.08
41234;BME280;26968;42.686;23.352;2023-04-28T04:58:05;95548.78;;;4.65;51.84
41234;BME280;26968;42.686;23.352;2023-04-28T05:00:30;95593.13;;;4.97;52.06
41234;BME280;26968;42.686;23.352;2023-04-28T05:02:56;95572.13;;;4.85;51.68
41234;BME280;26968;42.686;23.352;2023-04-28T05:05:21;95676.28;;;5.44;51.74
41234;BME280;26968;42.686;23.352;2023-04-28T05:07:47;95587.78;;;5.03;51.98
41234;BME280;26968;42.686;23.352;2023-04-28T05:10:13;95607.91;;;5.10;51.82
41234;BME280;26968;42.686;23.352;2023-04-28T05:12:39;95671.81;;;5.68;51.22
41234;BME280;26968;42.686;23.352;2023-04-28T05:15:05;95564.59;;;5.00;51.26
41234;BME280;26968;42.686;23.352;2023-04-28T05:17:31;95674.09;;;5.53;51.35
41234;BME280;26968;42.686;23.352;2023-04-28T05:19:57;95676.38;;;5.61;51.47
41234;BME280;26968;42.686;23.352;2023-04-28T05:22:22;95656.38;;;5.49;51.38
41234;BME280;26968;42.686;23.352;2023-04-28T05:24:48;95672.50;;;5.64;50.88
41234;BME280;26968;42.686;23.352;2023-04-28T05:27:14;95647.56;;;5.55;50.58
41234;BME280;26968;42.686;23.352;2023-04-28T05:29:39;95602.41;;;5.34;51.24
41234;BME280;26968;42.686;23.352;2023-04-28T05:32:05;95681.09;;;5.71;50.78
41234;BME280;26968;42.686;23.352;2023-04-28T05:34:30;95631.56;;;5.44;51.28
41234;BME280;26968;42.686;23.352;2023-04-28T05:36:56;95598.28;;;5.38;51.44
41234;BME280;26968;42.686;23.352;2023-04-28T05:39:21;95582.50;;;5.38;51.09
41234;BME280;26968;42.686;23.352;2023-04-28T05:41:47;95662.66;;;5.94;50.76
41234;BME280;26968;42.686;23.352;2023-04-28T05:44:12;95597.72;;;5.48;50.94
41234;BME280;26968;42.686;23.352;2023-04-28T05:46:37;95651.66;;;5.74;50.90
41234;BME280;26968;42.686;23.352;2023-04-28T05:49:03;95576.34;;;5.33;50.50
41234;BME280;26968;42.686;23.352;2023-04-28T05:51:28;95619.53;;;5.72;50.73
41234;BME280;26968;42.686;23.352;2023-04-28T05:53:54;95671.00;;;5.79;50.99
41234;BME280;26968;42.686;23.352;2023-04-28T05:56:19;95669.97;;;5.92;51.39
41234;BME280;26968;42.686;23.352;2023-04-28T05:58:45;95667.22;;;5.87;50.53
41234;BME280;26968;42.686;23.352;2023-04-28T06:01:11;95632.78;;;5.77;51.13
41234;BME280;26968;42.686;23.352;2023-04-28T06:03:37;95656.69;;;5.99;51.28
41234;BME280;26968;42.686;23.352;2023-04-28T06:06:05;95634.00;;;5.98;50.91
41234;BME280;26968;42.686;23.352;2023-04-28T06:08:30;95649.88;;;6.14;50.14
41234;BME280;26968;42.686;23.352;2023-04-28T06:10:56;95657.03;;;6.31;50.81
41234;BME280;26968;42.686;23.352;2023-04-28T06:13:21;95646.59;;;6.07;50.08
41234;BME280;26968;42.686;23.352;2023-04-28T06:15:46;95652.97;;;6.11;50.06
41234;BME280;26968;42.686;23.352;2023-04-28T06:18:12;95567.25;;;5.64;50.20
41234;BME280;26968;42.686;23.352;2023-04-28T06:20:37;95674.78;;;6.35;50.36
41234;BME280;26968;42.686;23.352;2023-04-28T06:23:04;95616.28;;;5.93;50.23
41234;BME280;26968;42.686;23.352;2023-04-28T06:25:29;95678.56;;;6.39;50.46
41234;BME280;26968;42.686;23.352;2023-04-28T06:27:55;95639.41;;;6.31;50.46
41234;BME280;26968;42.686;23.352;2023-04-28T06:30:21;95656.19;;;6.42;49.96
41234;BME280;26968;42.686;23.352;2023-04-28T06:32:47;95652.75;;;6.41;49.50
41234;BME280;26968;42.686;23.352;2023-04-28T06:35:15;95670.94;;;6.54;49.59
41234;BME280;26968;42.686;23.352;2023-04-28T06:37:40;95674.69;;;6.58;49.48
41234;BME280;26968;42.686;23.352;2023-04-28T06:40:07;95663.09;;;6.59;49.35
41234;BME280;26968;42.686;23.352;2023-04-28T06:42:32;95565.25;;;6.23;48.81
41234;BME280;26968;42.686;23.352;2023-04-28T06:44:58;95583.88;;;6.33;48.81
41234;BME280;26968;42.686;23.352;2023-04-28T06:47:23;95608.56;;;6.60;48.56
41234;BME280;26968;42.686;23.352;2023-04-28T06:49:48;95664.50;;;6.95;48.86
41234;BME280;26968;42.686;23.352;2023-04-28T06:52:15;95670.28;;;6.92;48.85
41234;BME280;26968;42.686;23.352;2023-04-28T06:54:40;95643.25;;;6.69;48.95
41234;BME280;26968;42.686;23.352;2023-04-28T06:57:06;95549.50;;;6.28;48.68
41234;BME280;26968;42.686;23.352;2023-04-28T06:59:31;95623.53;;;6.88;48.19
41234;BME280;26968;42.686;23.352;2023-04-28T07:01:57;95613.78;;;6.88;49.05
41234;BME280;26968;42.686;23.352;2023-04-28T07:04:23;95665.00;;;7.26;47.78
41234;BME280;26968;42.686;23.352;2023-04-28T07:06:48;95633.03;;;7.06;48.18
41234;BME280;26968;42.686;23.352;2023-04-28T07:09:14;95631.50;;;7.10;47.44
41234;BME280;26968;42.686;23.352;2023-04-28T07:11:40;95671.97;;;7.32;48.35
41234;BME280;26968;42.686;23.352;2023-04-28T07:14:06;95608.09;;;6.96;46.91
41234;BME280;26968;42.686;23.352;2023-04-28T07:16:32;95633.09;;;7.11;47.08
41234;BME280;26968;42.686;23.352;2023-04-28T07:18:58;95642.00;;;7.21;46.76
41234;BME280;26968;42.686;23.352;2023-04-28T07:21:23;95664.28;;;7.47;46.29
41234;BME280;26968;42.686;23.352;2023-04-28T07:23:49;95649.72;;;7.45;47.18
41234;BME280;26968;42.686;23.352;2023-04-28T07:26:14;95595.53;;;7.20;47.22
41234;BME280;26968;42.686;23.352;2023-04-28T07:28:43;95636.34;;;7.51;45.73
41234;BME280;26968;42.686;23.352;2023-04-28T07:31:08;95606.38;;;7.41;44.56
41234;BME280;26968;42.686;23.352;2023-04-28T07:33:34;95633.06;;;7.61;44.72
41234;BME280;26968;42.686;23.352;2023-04-28T07:35:59;95622.69;;;7.54;44.29
41234;BME280;26968;42.686;23.352;2023-04-28T07:38:25;95563.09;;;7.20;44.35
41234;BME280;26968;42.686;23.352;2023-04-28T07:40:50;95559.19;;;7.22;44.46
41234;BME280;26968;42.686;23.352;2023-04-28T07:43:16;95627.50;;;7.79;44.98
41234;BME280;26968;42.686;23.352;2023-04-28T07:45:41;95624.59;;;7.81;44.03
41234;BME280;26968;42.686;23.352;2023-04-28T07:48:09;95624.47;;;7.70;43.99
41234;BME280;26968;42.686;23.352;2023-04-28T07:50:35;95639.84;;;7.95;43.96
41234;BME280;26968;42.686;23.352;2023-04-28T07:53:02;95612.91;;;7.93;43.89
41234;BME280;26968;42.686;23.352;2023-04-28T07:55:28;95593.25;;;7.84;42.19
41234;BME280;26968;42.686;23.352;2023-04-28T07:57:53;95650.38;;;8.34;43.08
41234;BME280;26968;42.686;23.352;2023-04-28T08:00:19;95632.34;;;8.09;42.78
41234;BME280;26968;42.686;23.352;2023-04-28T08:02:45;95659.41;;;8.38;42.49
41234;BME280;26968;42.686;23.352;2023-04-28T08:05:10;95638.50;;;8.36;42.42
41234;BME280;26968;42.686;23.352;2023-04-28T08:07:36;95629.16;;;8.29;41.21
41234;BME280;26968;42.686;23.352;2023-04-28T08:10:03;95652.97;;;8.56;41.44
41234;BME280;26968;42.686;23.352;2023-04-28T08:12:28;95636.38;;;8.60;41.57
41234;BME280;26968;42.686;23.352;2023-04-28T08:14:55;95629.63;;;8.47;41.19
41234;BME280;26968;42.686;23.352;2023-04-28T08:17:21;95631.34;;;8.59;40.94
41234;BME280;26968;42.686;23.352;2023-04-28T08:19:46;95611.19;;;8.52;40.60
41234;BME280;26968;42.686;23.352;2023-04-28T08:22:13;95620.31;;;8.67;40.42
41234;BME280;26968;42.686;23.352;2023-04-28T08:24:38;95650.50;;;8.98;41.07
41234;BME280;26968;42.686;23.352;2023-04-28T08:27:04;95635.75;;;9.07;41.07
41234;BME280;26968;42.686;23.352;2023-04-28T08:29:30;95587.91;;;8.81;40.68
41234;BME280;26968;42.686;23.352;2023-04-28T08:31:56;95624.03;;;8.98;40.32
41234;BME280;26968;42.686;23.352;2023-04-28T08:34:22;95631.25;;;9.07;40.28
41234;BME280;26968;42.686;23.352;2023-04-28T08:36:48;95636.03;;;9.10;40.72
41234;BME280;26968;42.686;23.352;2023-04-28T08:39:13;95631.63;;;9.21;39.27
41234;BME280;26968;42.686;23.352;2023-04-28T08:41:39;95609.00;;;9.03;40.09
41234;BME280;26968;42.686;23.352;2023-04-28T08:44:08;95619.44;;;9.20;39.51
41234;BME280;26968;42.686;23.352;2023-04-28T08:46:34;95583.91;;;9.11;39.63
41234;BME280;26968;42.686;23.352;2023-04-28T08:49:00;95591.00;;;9.42;40.16
41234;BME280;26968;42.686;23.352;2023-04-28T08:51:33;95558.34;;;9.26;39.68
41234;BME280;26968;42.686;23.352;2023-04-28T08:54:01;95597.91;;;9.48;39.62
41234;BME280;26968;42.686;23.352;2023-04-28T08:56:33;95605.94;;;9.58;39.09
41234;BME280;26968;42.686;23.352;2023-04-28T08:59:03;95625.84;;;9.66;39.05
41234;BME280;26968;42.686;23.352;2023-04-28T09:01:30;95556.00;;;9.30;39.33
41234;BME280;26968;42.686;23.352;2023-04-28T09:03:56;95627.59;;;9.50;39.31
41234;BME280;26968;42.686;23.352;2023-04-28T09:06:21;95532.66;;;8.85;39.50
41234;BME280;26968;42.686;23.352;2023-04-28T09:08:47;95479.38;;;8.66;39.63
41234;BME280;26968;42.686;23.352;2023-04-28T09:11:13;95515.66;;;9.08;40.09
41234;BME280;26968;42.686;23.352;2023-04-28T09:13:39;95582.59;;;9.55;39.48
41234;BME280;26968;42.686;23.352;2023-04-28T09:16:05;95614.75;;;9.74;38.87
41234;BME280;26968;42.686;23.352;2023-04-28T09:18:31;95581.78;;;9.50;39.56
41234;BME280;26968;42.686;23.352;2023-04-28T09:21:09;95608.44;;;9.85;39.45
41234;BME280;26968;42.686;23.352;2023-04-28T09:23:46;95576.59;;;9.70;38.86
41234;BME280;26968;42.686;23.352;2023-04-28T09:26:13;95537.81;;;9.44;38.66
41234;BME280;26968;42.686;23.352;2023-04-28T09:28:38;95536.47;;;9.46;38.65
41234;BME280;26968;42.686;23.352;2023-04-28T09:31:05;95556.44;;;9.64;39.28
41234;BME280;26968;42.686;23.352;2023-04-28T09:33:31;95580.44;;;10.04;37.87
41234;BME280;26968;42.686;23.352;2023-04-28T09:35:57;95571.97;;;10.07;38.72
41234;BME280;26968;42.686;23.352;2023-04-28T09:38:22;95537.19;;;9.84;38.02
41234;BME280;26968;42.686;23.352;2023-04-28T09:41:01;95551.84;;;10.06;37.84
41234;BME280;26968;42.686;23.352;2023-04-28T09:43:30;95584.47;;;10.17;38.00
41234;BME280;26968;42.686;23.352;2023-04-28T09:45:58;95564.31;;;10.11;37.90
41234;BME280;26968;42.686;23.352;2023-04-28T09:48:41;95549.84;;;10.59;38.29
41234;BME280;26968;42.686;23.352;2023-04-28T09:51:07;95570.75;;;11.47;35.94
41234;BME280;26968;42.686;23.352;2023-04-28T09:53:34;95521.69;;;12.04;35.21
41234;BME280;26968;42.686;23.352;2023-04-28T09:56:03;95551.38;;;12.65;32.82
41234;BME280;26968;42.686;23.352;2023-04-28T09:58:29;95520.31;;;13.23;31.56
41234;BME280;26968;42.686;23.352;2023-04-28T10:00:59;95557.22;;;13.82;30.38
41234;BME280;26968;42.686;23.352;2023-04-28T10:03:26;95556.47;;;14.81;28.72
41234;BME280;26968;42.686;23.352;2023-04-28T10:05:52;95553.06;;;15.72;28.01
41234;BME280;26968;42.686;23.352;2023-04-28T10:08:22;95540.81;;;16.48;26.93
41234;BME280;26968;42.686;23.352;2023-04-28T10:10:49;95507.25;;;16.29;26.86
41234;BME280;26968;42.686;23.352;2023-04-28T10:13:18;95543.50;;;16.62;26.16
41234;BME280;26968;42.686;23.352;2023-04-28T10:15:44;95540.72;;;17.43;26.38
41234;BME280;26968;42.686;23.352;2023-04-28T10:18:13;95519.97;;;17.57;24.88
41234;BME280;26968;42.686;23.352;2023-04-28T10:20:45;95553.34;;;18.04;25.26
41234;BME280;26968;42.686;23.352;2023-04-28T10:23:34;95541.75;;;17.86;25.65
41234;BME280;26968;42.686;23.352;2023-04-28T10:26:02;95523.09;;;18.46;25.26
41234;BME280;26968;42.686;23.352;2023-04-28T10:28:34;95549.53;;;19.22;23.90
41234;BME280;26968;42.686;23.352;2023-04-28T10:33:36;95488.19;;;18.55;23.88
41234;BME280;26968;42.686;23.352;2023-04-28T10:36:03;95517.88;;;19.27;22.50
41234;BME280;26968;42.686;23.352;2023-04-28T10:38:29;95481.78;;;17.91;24.00
41234;BME280;26968;42.686;23.352;2023-04-28T10:40:54;95506.41;;;18.58;24.37
41234;BME280;26968;42.686;23.352;2023-04-28T10:48:19;95495.03;;;18.61;23.28
41234;BME280;26968;42.686;23.352;2023-04-28T10:56:18;95487.03;;;18.04;23.70
41234;BME280;26968;42.686;23.352;2023-04-28T10:58:44;95472.03;;;18.12;22.80
41234;BME280;26968;42.686;23.352;2023-04-28T11:03:59;95507.66;;;17.87;23.74
41234;BME280;26968;42.686;23.352;2023-04-28T11:06:32;95501.66;;;17.19;25.07
41234;BME280;26968;42.686;23.352;2023-04-28T11:11:32;95387.47;;;16.56;23.91
41234;BME280;26968;42.686;23.352;2023-04-28T11:16:54;95481.03;;;17.99;23.91
41234;BME280;26968;42.686;23.352;2023-04-28T11:19:22;95481.34;;;18.06;22.25
41234;BME280;26968;42.686;23.352;2023-04-28T11:21:52;95474.59;;;18.77;21.84
41234;BME280;26968;42.686;23.352;2023-04-28T11:24:17;95397.13;;;18.97;21.81
41234;BME280;26968;42.686;23.352;2023-04-28T11:26:43;95475.69;;;19.02;21.67
41234;BME280;26968;42.686;23.352;2023-04-28T11:29:10;95463.91;;;18.69;22.08
41234;BME280;26968;42.686;23.352;2023-04-28T11:31:35;95411.22;;;17.73;23.25
41234;BME280;26968;42.686;23.352;2023-04-28T11:34:06;95408.38;;;17.87;24.04
41234;BME280;26968;42.686;23.352;2023-04-28T11:36:37;95452.66;;;18.15;23.61
41234;BME280;26968;42.686;23.352;2023-04-28T11:39:08;95447.31;;;18.67;23.70
41234;BME280;26968;42.686;23.352;2023-04-28T11:41:39;95445.94;;;19.07;23.40
41234;BME280;26968;42.686;23.352;2023-04-28T11:44:22;95453.88;;;19.04;23.65
41234;BME280;26968;42.686;23.352;2023-04-28T11:46:50;95451.22;;;18.35;24.41
41234;BME280;26968;42.686;23.352;2023-04-28T11:49:19;95439.06;;;18.80;24.24
41234;BME280;26968;42.686;23.352;2023-04-28T11:51:45;95390.97;;;19.34;23.53
41234;BME280;26968;42.686;23.352;2023-04-28T11:54:13;95378.22;;;19.90;23.87
41234;BME280;26968;42.686;23.352;2023-04-28T11:56:42;95418.44;;;20.69;24.05
41234;BME280;26968;42.686;23.352;2023-04-28T11:59:10;95379.25;;;19.97;21.56
41234;BME280;26968;42.686;23.352;2023-04-28T12:01:50;95448.22;;;20.31;21.74
41234;BME280;26968;42.686;23.352;2023-04-28T12:09:26;95434.91;;;20.35;22.09
41234;BME280;26968;42.686;23.352;2023-04-28T12:11:53;95408.50;;;20.28;21.75
41234;BME280;26968;42.686;23.352;2023-04-28T12:14:20;95424.38;;;20.21;21.79
41234;BME280;26968;42.686;23.352;2023-04-28T12:16:45;95423.56;;;19.33;23.52
41234;BME280;26968;42.686;23.352;2023-04-28T12:19:12;95408.56;;;18.76;23.98
41234;BME280;26968;42.686;23.352;2023-04-28T12:21:39;95384.53;;;18.71;24.12
41234;BME280;26968;42.686;23.352;2023-04-28T12:24:15;95414.78;;;19.15;23.90
41234;BME280;26968;42.686;23.352;2023-04-28T12:26:40;95377.66;;;19.00;23.58
41234;BME280;26968;42.686;23.352;2023-04-28T12:29:07;95380.06;;;19.31;23.49
41234;BME280;26968;42.686;23.352;2023-04-28T12:31:49;95400.75;;;20.06;23.09
41234;BME280;26968;42.686;23.352;2023-04-28T12:34:17;95397.81;;;20.53;22.69
41234;BME280;26968;42.686;23.352;2023-04-28T12:36:42;95401.03;;;19.46;23.22
41234;BME280;26968;42.686;23.352;2023-04-28T12:39:14;95387.28;;;19.77;23.01
41234;BME280;26968;42.686;23.352;2023-04-28T12:41:44;95361.44;;;19.25;23.19
41234;BME280;26968;42.686;23.352;2023-04-28T12:44:10;95390.25;;;19.84;23.25
41234;BME280;26968;42.686;23.352;2023-04-28T12:46:36;95371.84;;;20.36;23.01
41234;BME280;26968;42.686;23.352;2023-04-28T12:49:01;95350.94;;;20.33;22.55
41234;BME280;26968;42.686;23.352;2023-04-28T12:51:27;95373.06;;;20.18;23.08
41234;BME280;26968;42.686;23.352;2023-04-28T12:53:53;95377.38;;;20.85;22.63
41234;BME280;26968;42.686;23.352;2023-04-28T12:56:19;95377.22;;;21.02;23.02
41234;BME280;26968;42.686;23.352;2023-04-28T12:58:44;95378.47;;;20.71;22.58
41234;BME280;26968;42.686;23.352;2023-04-28T13:01:10;95360.00;;;19.87;22.76
41234;BME280;26968;42.686;23.352;2023-04-28T13:03:36;95370.78;;;20.08;22.89
41234;BME280;26968;42.686;23.352;2023-04-28T13:06:02;95326.97;;;20.19;22.86
41234;BME280;26968;42.686;23.352;2023-04-28T13:08:27;95349.72;;;20.63;21.97
41234;BME280;26968;42.686;23.352;2023-04-28T13:10:55;95336.53;;;20.50;21.88
41234;BME280;26968;42.686;23.352;2023-04-28T13:13:21;95316.91;;;20.49;21.44
41234;BME280;26968;42.686;23.352;2023-04-28T13:15:46;95364.25;;;20.29;21.97
41234;BME280;26968;42.686;23.352;2023-04-28T13:18:11;95336.66;;;20.53;22.01
41234;BME280;26968;42.686;23.352;2023-04-28T13:20:37;95324.44;;;20.68;21.78